Collegeville, Minnesota
Current Conditions -  °F | °C
As of 11:53 PM on Thursday 18 Dec 2014 (Local Time) from KSTC Reporting Station
Overcast Overcast  
Wind Chill: 14°   Ceiling: 8000
Heat Index: 22°   Visibility: 9mi
Dew Point: 15°   Wind: 6mph
Humidity: 75%   Direction: 150°SSE
Pressure: 30.25"   Gusts: NA
Location:  45.59°N, 94.36°W
Report Text: KSTC 190553Z AUTO 15005KT 9SM OVC080 M06/M09 A3025 RMK AO2 SLP270 T10561094 11056 21067 410561128 51005
Loading
Personal Weather Stations






























Interactive Weather Map New forecast layout! Learn more

10-Day Weather Forecast

Advertisements
Track Severe Weather on mobile